Mason, New Hampshire
Current Conditions -  °F | °C
As of 11:51 PM on Saturday 25 Oct 2014 (Local Time) from KASH Reporting Station
Broken Clouds Broken Clouds  
Wind Chill: 56°   Ceiling: 9000
Heat Index: 56°   Visibility: 10mi
Dew Point: 44°   Wind: 0mph
Humidity: 64%   Direction: NA
Pressure: 29.49"   Gusts: NA
Location:  42.7496°N, 71.7606°W
Report Text: KASH 260351Z AUTO 00000KT 10SM FEW070 BKN090 13/07 A2949 RMK AO2 T01330066 401880033 SLP230 $
Loading
Personal Weather Stations






























Interactive Weather Map
Tropical Storm Tracking
New forecast layout! Learn more

10-Day Weather Forecast

Advertisements
Track Severe Weather on mobile